sensor_id;sensor_type;location;lat;lon;timestamp;pressure;altitude;pressure_sealevel;temperature;humidity
26376;BME280;30544;42.196;24.336;2023-03-20T00:00:29;99598.34;;;6.47;72.52
26376;BME280;30544;42.196;24.336;2023-03-20T00:02:57;99605.53;;;6.68;71.96
26376;BME280;30544;42.196;24.336;2023-03-20T00:05:25;99598.34;;;6.40;72.09
26376;BME280;30544;42.196;24.336;2023-03-20T00:07:54;99591.56;;;6.29;72.84
26376;BME280;30544;42.196;24.336;2023-03-20T00:10:24;99597.25;;;6.21;72.84
26376;BME280;30544;42.196;24.336;2023-03-20T00:12:51;99601.94;;;6.27;72.78
26376;BME280;30544;42.196;24.336;2023-03-20T00:15:29;99592.41;;;6.23;72.68
26376;BME280;30544;42.196;24.336;2023-03-20T00:17:59;99591.72;;;5.95;74.59
26376;BME280;30544;42.196;24.336;2023-03-20T00:20:26;99585.53;;;5.86;74.44
26376;BME280;30544;42.196;24.336;2023-03-20T00:22:53;99584.66;;;5.72;75.14
26376;BME280;30544;42.196;24.336;2023-03-20T00:25:22;99584.75;;;5.92;74.41
26376;BME280;30544;42.196;24.336;2023-03-20T00:27:50;99585.59;;;5.93;74.44
26376;BME280;30544;42.196;24.336;2023-03-20T00:30:23;99578.97;;;5.81;74.73
26376;BME280;30544;42.196;24.336;2023-03-20T00:32:51;99585.31;;;5.81;74.48
26376;BME280;30544;42.196;24.336;2023-03-20T00:35:23;99580.88;;;5.87;74.59
26376;BME280;30544;42.196;24.336;2023-03-20T00:37:50;99585.53;;;5.86;74.34
26376;BME280;30544;42.196;24.336;2023-03-20T00:40:18;99578.97;;;5.87;74.60
26376;BME280;30544;42.196;24.336;2023-03-20T00:42:46;99584.03;;;5.84;74.51
26376;BME280;30544;42.196;24.336;2023-03-20T00:45:17;99574.94;;;5.77;75.42
26376;BME280;30544;42.196;24.336;2023-03-20T00:47:46;99575.16;;;5.82;75.39
26376;BME280;30544;42.196;24.336;2023-03-20T00:50:17;99585.53;;;5.73;75.38
26376;BME280;30544;42.196;24.336;2023-03-20T00:52:46;99575.84;;;5.90;74.99
26376;BME280;30544;42.196;24.336;2023-03-20T00:55:13;99574.50;;;5.73;75.16
26376;BME280;30544;42.196;24.336;2023-03-20T00:57:45;99566.41;;;5.58;76.62
26376;BME280;30544;42.196;24.336;2023-03-20T01:00:25;99574.06;;;5.69;75.96
26376;BME280;30544;42.196;24.336;2023-03-20T01:02:54;99574.06;;;5.69;76.26
26376;BME280;30544;42.196;24.336;2023-03-20T01:05:23;99560.06;;;5.64;75.90
26376;BME280;30544;42.196;24.336;2023-03-20T01:07:51;99574.06;;;5.63;76.22
26376;BME280;30544;42.196;24.336;2023-03-20T01:10:18;99564.91;;;5.49;76.83
26376;BME280;30544;42.196;24.336;2023-03-20T01:12:45;99552.78;;;5.37;76.98
26376;BME280;30544;42.196;24.336;2023-03-20T01:15:20;99558.97;;;5.39;77.93
26376;BME280;30544;42.196;24.336;2023-03-20T01:17:48;99559.13;;;5.31;77.84
26376;BME280;30544;42.196;24.336;2023-03-20T01:20:21;99546.84;;;5.33;77.53
26376;BME280;30544;42.196;24.336;2023-03-20T01:22:48;99550.44;;;5.21;78.22
26376;BME280;30544;42.196;24.336;2023-03-20T01:25:17;99548.75;;;5.33;78.43
26376;BME280;30544;42.196;24.336;2023-03-20T01:27:46;99549.28;;;5.56;77.17
26376;BME280;30544;42.196;24.336;2023-03-20T01:30:18;99547.94;;;5.39;77.26
26376;BME280;30544;42.196;24.336;2023-03-20T01:32:45;99546.41;;;5.23;78.16
26376;BME280;30544;42.196;24.336;2023-03-20T01:35:14;99549.59;;;5.27;78.47
26376;BME280;30544;42.196;24.336;2023-03-20T01:37:41;99544.31;;;5.25;78.64
26376;BME280;30544;42.196;24.336;2023-03-20T01:40:19;99538.00;;;5.38;77.96
26376;BME280;30544;42.196;24.336;2023-03-20T01:42:51;99539.72;;;5.52;77.53
26376;BME280;30544;42.196;24.336;2023-03-20T01:45:21;99549.88;;;5.45;78.25
26376;BME280;30544;42.196;24.336;2023-03-20T01:47:50;99544.78;;;5.42;77.96
26376;BME280;30544;42.196;24.336;2023-03-20T01:50:26;99537.81;;;5.53;77.90
26376;BME280;30544;42.196;24.336;2023-03-20T01:53:01;99542.88;;;5.49;78.32
26376;BME280;30544;42.196;24.336;2023-03-20T01:55:31;99535.91;;;5.47;77.28
26376;BME280;30544;42.196;24.336;2023-03-20T01:58:01;99529.16;;;5.56;77.75
26376;BME280;30544;42.196;24.336;2023-03-20T02:00:29;99523.84;;;5.54;78.15
26376;BME280;30544;42.196;24.336;2023-03-20T02:02:57;99527.69;;;5.66;77.78
26376;BME280;30544;42.196;24.336;2023-03-20T02:05:24;99524.72;;;5.68;77.05
26376;BME280;30544;42.196;24.336;2023-03-20T02:08:01;99522.41;;;5.58;77.74
26376;BME280;30544;42.196;24.336;2023-03-20T02:10:32;99529.56;;;5.46;77.92
26376;BME280;30544;42.196;24.336;2023-03-20T02:13:00;99531.03;;;5.49;77.93
26376;BME280;30544;42.196;24.336;2023-03-20T02:15:35;99532.50;;;5.51;77.56
26376;BME280;30544;42.196;24.336;2023-03-20T02:18:02;99525.09;;;5.45;77.90
26376;BME280;30544;42.196;24.336;2023-03-20T02:20:45;99519.75;;;5.24;77.95
26376;BME280;30544;42.196;24.336;2023-03-20T02:26:41;99517.22;;;5.29;79.42
26376;BME280;30544;42.196;24.336;2023-03-20T02:35:26;99521.03;;;5.21;77.73
26376;BME280;30544;42.196;24.336;2023-03-20T02:38:17;99520.34;;;5.12;78.43
26376;BME280;30544;42.196;24.336;2023-03-20T02:40:54;99519.75;;;5.24;77.88
26376;BME280;30544;42.196;24.336;2023-03-20T02:43:30;99519.28;;;5.20;77.27
26376;BME280;30544;42.196;24.336;2023-03-20T02:46:08;99518.69;;;5.25;77.68
26376;BME280;30544;42.196;24.336;2023-03-20T02:48:43;99517.94;;;4.96;78.11
26376;BME280;30544;42.196;24.336;2023-03-20T02:51:16;99520.69;;;4.96;78.97
26376;BME280;30544;42.196;24.336;2023-03-20T02:53:51;99514.34;;;4.96;78.95
26376;BME280;30544;42.196;24.336;2023-03-20T02:56:23;99513.84;;;4.86;79.78
26376;BME280;30544;42.196;24.336;2023-03-20T02:59:01;99524.31;;;4.62;79.60
26376;BME280;30544;42.196;24.336;2023-03-20T03:01:35;99515.72;;;4.72;80.06
26376;BME280;30544;42.196;24.336;2023-03-20T03:04:09;99510.66;;;4.75;79.01
26376;BME280;30544;42.196;24.336;2023-03-20T03:06:39;99512.47;;;4.62;79.36
26376;BME280;30544;42.196;24.336;2023-03-20T03:09:12;99514.38;;;4.61;81.31
26376;BME280;30544;42.196;24.336;2023-03-20T03:11:44;99517.31;;;4.60;80.80
26376;BME280;30544;42.196;24.336;2023-03-20T03:14:17;99518.69;;;4.42;80.56
26376;BME280;30544;42.196;24.336;2023-03-20T03:16:46;99504.44;;;4.60;80.45
26376;BME280;30544;42.196;24.336;2023-03-20T03:19:17;99513.09;;;4.57;80.39
26376;BME280;30544;42.196;24.336;2023-03-20T03:21:47;99510.13;;;4.59;80.57
26376;BME280;30544;42.196;24.336;2023-03-20T03:24:26;99510.38;;;4.64;80.53
26376;BME280;30544;42.196;24.336;2023-03-20T03:26:54;99513.28;;;4.56;80.57
26376;BME280;30544;42.196;24.336;2023-03-20T03:29:22;99514.66;;;4.73;79.91
26376;BME280;30544;42.196;24.336;2023-03-20T03:31:51;99518.16;;;4.53;79.95
26376;BME280;30544;42.196;24.336;2023-03-20T03:34:21;99519.88;;;4.33;80.76
26376;BME280;30544;42.196;24.336;2023-03-20T03:36:50;99520.78;;;4.40;81.50
26376;BME280;30544;42.196;24.336;2023-03-20T03:39:25;99526.53;;;4.45;81.47
26376;BME280;30544;42.196;24.336;2023-03-20T03:41:57;99533.22;;;4.36;80.81
26376;BME280;30544;42.196;24.336;2023-03-20T03:44:32;99521.56;;;4.62;80.70
26376;BME280;30544;42.196;24.336;2023-03-20T03:47:04;99525.81;;;4.65;80.28
26376;BME280;30544;42.196;24.336;2023-03-20T03:49:34;99517.31;;;4.60;80.05
26376;BME280;30544;42.196;24.336;2023-03-20T03:52:05;99517.94;;;4.55;80.20
26376;BME280;30544;42.196;24.336;2023-03-20T03:54:38;99509.94;;;4.60;79.73
26376;BME280;30544;42.196;24.336;2023-03-20T03:57:07;99515.03;;;4.70;79.68
26376;BME280;30544;42.196;24.336;2023-03-20T03:59:38;99503.16;;;4.56;79.30
26376;BME280;30544;42.196;24.336;2023-03-20T04:02:07;99510.22;;;4.72;79.26
26376;BME280;30544;42.196;24.336;2023-03-20T04:04:37;99505.94;;;4.63;78.69
26376;BME280;30544;42.196;24.336;2023-03-20T04:07:08;99503.78;;;4.58;79.90
26376;BME280;30544;42.196;24.336;2023-03-20T04:09:36;99504.22;;;4.62;79.11
26376;BME280;30544;42.196;24.336;2023-03-20T04:12:03;99495.34;;;4.60;79.67
26376;BME280;30544;42.196;24.336;2023-03-20T04:14:30;99501.25;;;4.57;80.25
26376;BME280;30544;42.196;24.336;2023-03-20T04:16:57;99503.09;;;4.49;79.74
26376;BME280;30544;42.196;24.336;2023-03-20T04:19:24;99496.63;;;4.64;80.29
26376;BME280;30544;42.196;24.336;2023-03-20T04:21:51;99500.44;;;4.63;79.75
26376;BME280;30544;42.196;24.336;2023-03-20T04:24:19;99503.59;;;4.60;79.56
26376;BME280;30544;42.196;24.336;2023-03-20T04:26:47;99496.00;;;4.62;79.47
26376;BME280;30544;42.196;24.336;2023-03-20T04:29:15;99491.88;;;4.44;79.75
26376;BME280;30544;42.196;24.336;2023-03-20T04:31:41;99495.06;;;4.48;80.15
26376;BME280;30544;42.196;24.336;2023-03-20T04:34:08;99497.19;;;4.52;79.74
26376;BME280;30544;42.196;24.336;2023-03-20T04:36:35;99502.19;;;4.70;79.86
26376;BME280;30544;42.196;24.336;2023-03-20T04:39:01;99496.91;;;4.41;80.34
26376;BME280;30544;42.196;24.336;2023-03-20T04:41:28;99498.72;;;4.62;80.03
26376;BME280;30544;42.196;24.336;2023-03-20T04:43:56;99499.44;;;4.70;79.62
26376;BME280;30544;42.196;24.336;2023-03-20T04:46:23;99506.53;;;4.58;79.47
26376;BME280;30544;42.196;24.336;2023-03-20T04:48:50;99505.78;;;4.77;79.03
26376;BME280;30544;42.196;24.336;2023-03-20T04:51:17;99505.69;;;4.99;77.75
26376;BME280;30544;42.196;24.336;2023-03-20T04:53:44;99503.06;;;4.84;78.21
26376;BME280;30544;42.196;24.336;2023-03-20T04:56:12;99508.19;;;4.87;78.47
26376;BME280;30544;42.196;24.336;2023-03-20T04:58:38;99507.63;;;5.05;77.82
26376;BME280;30544;42.196;24.336;2023-03-20T05:01:07;99514.19;;;5.10;77.09
26376;BME280;30544;42.196;24.336;2023-03-20T05:03:33;99503.47;;;5.29;76.57
26376;BME280;30544;42.196;24.336;2023-03-20T05:06:00;99505.00;;;5.38;76.25
26376;BME280;30544;42.196;24.336;2023-03-20T05:08:27;99519.19;;;5.48;75.76
26376;BME280;30544;42.196;24.336;2023-03-20T05:10:54;99513.03;;;5.53;76.08
26376;BME280;30544;42.196;24.336;2023-03-20T05:13:21;99512.03;;;5.60;75.57
26376;BME280;30544;42.196;24.336;2023-03-20T05:15:47;99516.88;;;5.58;75.16
26376;BME280;30544;42.196;24.336;2023-03-20T05:18:15;99514.72;;;5.40;75.43
26376;BME280;30544;42.196;24.336;2023-03-20T05:20:42;99523.19;;;5.39;76.14
26376;BME280;30544;42.196;24.336;2023-03-20T05:23:09;99525.34;;;5.63;75.65
26376;BME280;30544;42.196;24.336;2023-03-20T05:25:36;99524.09;;;5.66;75.27
26376;BME280;30544;42.196;24.336;2023-03-20T05:28:03;99527.84;;;5.38;76.16
26376;BME280;30544;42.196;24.336;2023-03-20T05:30:29;99521.94;;;5.48;75.52
26376;BME280;30544;42.196;24.336;2023-03-20T05:32:56;99534.06;;;5.80;74.84
26376;BME280;30544;42.196;24.336;2023-03-20T05:35:24;99519.09;;;5.96;73.60
26376;BME280;30544;42.196;24.336;2023-03-20T05:37:51;99521.81;;;5.89;73.89
26376;BME280;30544;42.196;24.336;2023-03-20T05:40:18;99521.84;;;6.29;72.90
26376;BME280;30544;42.196;24.336;2023-03-20T05:42:48;99523.53;;;6.56;72.27
26376;BME280;30544;42.196;24.336;2023-03-20T05:45:15;99516.47;;;6.80;71.02
26376;BME280;30544;42.196;24.336;2023-03-20T05:47:42;99508.22;;;6.67;71.41
26376;BME280;30544;42.196;24.336;2023-03-20T05:50:09;99509.84;;;6.94;70.95
26376;BME280;30544;42.196;24.336;2023-03-20T05:52:38;99521.31;;;6.85;70.72
26376;BME280;30544;42.196;24.336;2023-03-20T05:55:05;99525.22;;;7.22;69.40
26376;BME280;30544;42.196;24.336;2023-03-20T05:57:32;99516.19;;;7.46;68.72
26376;BME280;30544;42.196;24.336;2023-03-20T05:59:59;99511.47;;;7.53;68.42
26376;BME280;30544;42.196;24.336;2023-03-20T06:02:26;99505.91;;;7.22;68.69
26376;BME280;30544;42.196;24.336;2023-03-20T06:04:52;99505.31;;;7.51;69.01
26376;BME280;30544;42.196;24.336;2023-03-20T06:07:19;99511.34;;;7.35;68.50
26376;BME280;30544;42.196;24.336;2023-03-20T06:09:47;99518.44;;;7.18;70.04
26376;BME280;30544;42.196;24.336;2023-03-20T06:12:15;99512.56;;;7.84;67.76
26376;BME280;30544;42.196;24.336;2023-03-20T06:14:41;99510.69;;;7.78;67.63
26376;BME280;30544;42.196;24.336;2023-03-20T06:17:08;99503.78;;;7.62;68.46
26376;BME280;30544;42.196;24.336;2023-03-20T06:19:35;99504.56;;;7.76;68.66
26376;BME280;30544;42.196;24.336;2023-03-20T06:22:03;99505.81;;;8.05;67.71
26376;BME280;30544;42.196;24.336;2023-03-20T06:24:31;99501.72;;;8.39;66.26
26376;BME280;30544;42.196;24.336;2023-03-20T06:27:00;99499.44;;;8.54;64.96
26376;BME280;30544;42.196;24.336;2023-03-20T06:29:27;99498.47;;;9.03;64.91
26376;BME280;30544;42.196;24.336;2023-03-20T06:31:54;99492.19;;;9.15;63.31
26376;BME280;30544;42.196;24.336;2023-03-20T06:34:21;99500.81;;;9.25;63.27
26376;BME280;30544;42.196;24.336;2023-03-20T06:36:47;99499.41;;;8.79;63.47
26376;BME280;30544;42.196;24.336;2023-03-20T06:39:14;99497.41;;;8.86;64.43
26376;BME280;30544;42.196;24.336;2023-03-20T06:41:41;99498.94;;;9.00;63.86
26376;BME280;30544;42.196;24.336;2023-03-20T06:44:10;99503.16;;;9.70;61.74
26376;BME280;30544;42.196;24.336;2023-03-20T06:46:37;99500.25;;;9.16;62.50
26376;BME280;30544;42.196;24.336;2023-03-20T06:49:04;99499.38;;;9.94;62.01
26376;BME280;30544;42.196;24.336;2023-03-20T06:51:30;99496.13;;;9.97;60.19
26376;BME280;30544;42.196;24.336;2023-03-20T06:53:57;99497.34;;;10.01;60.60
26376;BME280;30544;42.196;24.336;2023-03-20T06:56:24;99497.31;;;9.89;61.21
26376;BME280;30544;42.196;24.336;2023-03-20T06:58:51;99497.53;;;9.88;60.47
26376;BME280;30544;42.196;24.336;2023-03-20T07:01:19;99495.63;;;10.53;59.39
26376;BME280;30544;42.196;24.336;2023-03-20T07:03:46;99498.66;;;10.52;58.94
26376;BME280;30544;42.196;24.336;2023-03-20T07:06:13;99499.00;;;10.32;59.44
26376;BME280;30544;42.196;24.336;2023-03-20T07:08:39;99499.88;;;10.79;58.10
26376;BME280;30544;42.196;24.336;2023-03-20T07:11:06;99494.75;;;11.11;57.80
26376;BME280;30544;42.196;24.336;2023-03-20T07:13:33;99506.56;;;11.19;57.49
26376;BME280;30544;42.196;24.336;2023-03-20T07:16:01;99493.13;;;10.75;57.73
26376;BME280;30544;42.196;24.336;2023-03-20T07:18:29;99491.03;;;11.46;57.02
26376;BME280;30544;42.196;24.336;2023-03-20T07:20:59;99491.06;;;11.34;57.12
26376;BME280;30544;42.196;24.336;2023-03-20T07:23:27;99481.69;;;11.52;56.06
26376;BME280;30544;42.196;24.336;2023-03-20T07:25:54;99479.50;;;12.11;54.61
26376;BME280;30544;42.196;24.336;2023-03-20T07:28:21;99478.66;;;12.27;54.25
26376;BME280;30544;42.196;24.336;2023-03-20T07:30:47;99475.78;;;12.05;54.74
26376;BME280;30544;42.196;24.336;2023-03-20T07:33:14;99470.19;;;11.89;56.00
26376;BME280;30544;42.196;24.336;2023-03-20T07:35:42;99472.41;;;12.20;55.60
26376;BME280;30544;42.196;24.336;2023-03-20T07:38:09;99477.38;;;12.18;54.76
26376;BME280;30544;42.196;24.336;2023-03-20T07:40:36;99465.63;;;12.83;53.66
26376;BME280;30544;42.196;24.336;2023-03-20T07:43:03;99457.81;;;12.63;54.22
26376;BME280;30544;42.196;24.336;2023-03-20T07:45:30;99464.78;;;12.83;54.12
26376;BME280;30544;42.196;24.336;2023-03-20T07:47:57;99465.66;;;12.50;54.45
26376;BME280;30544;42.196;24.336;2023-03-20T07:50:23;99469.84;;;13.08;52.80
26376;BME280;30544;42.196;24.336;2023-03-20T07:52:51;99466.75;;;13.26;52.41
26376;BME280;30544;42.196;24.336;2023-03-20T07:55:18;99475.91;;;12.83;52.95
26376;BME280;30544;42.196;24.336;2023-03-20T07:57:47;99473.19;;;12.88;52.86
26376;BME280;30544;42.196;24.336;2023-03-20T08:02:41;99463.59;;;13.39;52.46
26376;BME280;30544;42.196;24.336;2023-03-20T08:05:09;99454.91;;;13.84;51.60
26376;BME280;30544;42.196;24.336;2023-03-20T08:07:35;99460.56;;;13.68;51.91
26376;BME280;30544;42.196;24.336;2023-03-20T08:10:04;99458.31;;;14.24;49.68
26376;BME280;30544;42.196;24.336;2023-03-20T08:12:31;99452.22;;;13.95;50.50
26376;BME280;30544;42.196;24.336;2023-03-20T08:14:58;99445.31;;;14.02;51.28
26376;BME280;30544;42.196;24.336;2023-03-20T08:17:24;99448.34;;;14.28;50.73
26376;BME280;30544;42.196;24.336;2023-03-20T08:19:51;99449.34;;;14.49;50.10
26376;BME280;30544;42.196;24.336;2023-03-20T08:22:18;99455.03;;;15.11;50.09
26376;BME280;30544;42.196;24.336;2023-03-20T08:24:45;99452.56;;;14.67;50.27
26376;BME280;30544;42.196;24.336;2023-03-20T08:27:13;99455.44;;;14.83;50.46
26376;BME280;30544;42.196;24.336;2023-03-20T08:29:39;99448.56;;;14.95;50.41
26376;BME280;30544;42.196;24.336;2023-03-20T08:32:06;99445.22;;;14.98;50.57
26376;BME280;30544;42.196;24.336;2023-03-20T08:34:34;99443.88;;;14.64;50.26
26376;BME280;30544;42.196;24.336;2023-03-20T08:37:02;99442.91;;;14.11;51.85
26376;BME280;30544;42.196;24.336;2023-03-20T08:39:29;99438.88;;;14.66;50.60
26376;BME280;30544;42.196;24.336;2023-03-20T08:41:57;99429.84;;;15.74;48.71
26376;BME280;30544;42.196;24.336;2023-03-20T08:44:25;99431.81;;;15.05;50.50
26376;BME280;30544;42.196;24.336;2023-03-20T08:46:52;99426.03;;;15.27;49.13
26376;BME280;30544;42.196;24.336;2023-03-20T08:49:19;99413.84;;;15.49;49.80
26376;BME280;30544;42.196;24.336;2023-03-20T08:51:46;99418.13;;;15.04;50.40
26376;BME280;30544;42.196;24.336;2023-03-20T08:54:13;99406.75;;;15.16;50.32
26376;BME280;30544;42.196;24.336;2023-03-20T08:56:40;99404.97;;;15.72;49.71
26376;BME280;30544;42.196;24.336;2023-03-20T08:59:07;99410.19;;;15.43;49.25
26376;BME280;30544;42.196;24.336;2023-03-20T09:01:35;99404.44;;;16.41;47.97
26376;BME280;30544;42.196;24.336;2023-03-20T09:04:02;99407.78;;;16.28;47.57
26376;BME280;30544;42.196;24.336;2023-03-20T09:06:29;99394.91;;;16.47;47.17
26376;BME280;30544;42.196;24.336;2023-03-20T09:08:57;99391.03;;;16.33;46.99
26376;BME280;30544;42.196;24.336;2023-03-20T09:11:24;99390.72;;;16.40;47.49
26376;BME280;30544;42.196;24.336;2023-03-20T09:13:51;99390.72;;;16.50;47.77
26376;BME280;30544;42.196;24.336;2023-03-20T09:16:17;99390.38;;;16.77;46.44
26376;BME280;30544;42.196;24.336;2023-03-20T09:18:45;99396.59;;;16.38;45.15
26376;BME280;30544;42.196;24.336;2023-03-20T09:21:12;99394.47;;;17.10;44.70
26376;BME280;30544;42.196;24.336;2023-03-20T09:23:39;99393.03;;;17.23;44.19
26376;BME280;30544;42.196;24.336;2023-03-20T09:26:06;99389.22;;;16.98;45.20
26376;BME280;30544;42.196;24.336;2023-03-20T09:28:33;99383.41;;;16.59;45.19
26376;BME280;30544;42.196;24.336;2023-03-20T09:30:59;99373.25;;;16.94;45.43
26376;BME280;30544;42.196;24.336;2023-03-20T09:33:26;99372.84;;;17.75;43.96
26376;BME280;30544;42.196;24.336;2023-03-20T09:35:55;99376.72;;;17.84;43.74
26376;BME280;30544;42.196;24.336;2023-03-20T09:38:22;99369.31;;;17.00;43.74
26376;BME280;30544;42.196;24.336;2023-03-20T09:40:51;99368.13;;;17.11;44.17
26376;BME280;30544;42.196;24.336;2023-03-20T09:43:47;99366.66;;;17.34;43.83
26376;BME280;30544;42.196;24.336;2023-03-20T09:46:24;99349.47;;;17.90;43.08
26376;BME280;30544;42.196;24.336;2023-03-20T09:49:02;99353.09;;;17.90;42.09
26376;BME280;30544;42.196;24.336;2023-03-20T09:51:37;99349.06;;;17.67;42.00
26376;BME280;30544;42.196;24.336;2023-03-20T09:54:09;99337.56;;;17.69;44.15
26376;BME280;30544;42.196;24.336;2023-03-20T09:56:40;99335.84;;;17.73;44.45
26376;BME280;30544;42.196;24.336;2023-03-20T09:59:07;99335.03;;;17.67;45.19
26376;BME280;30544;42.196;24.336;2023-03-20T10:01:39;99327.06;;;18.14;44.28
26376;BME280;30544;42.196;24.336;2023-03-20T10:04:10;99332.69;;;17.85;44.91
26376;BME280;30544;42.196;24.336;2023-03-20T10:06:39;99330.16;;;17.83;43.67
26376;BME280;30544;42.196;24.336;2023-03-20T10:09:12;99315.22;;;18.22;42.81
26376;BME280;30544;42.196;24.336;2023-03-20T10:11:53;99318.41;;;18.10;43.01
26376;BME280;30544;42.196;24.336;2023-03-20T10:14:28;99307.38;;;18.48;41.51
26376;BME280;30544;42.196;24.336;2023-03-20T10:17:05;99304.22;;;18.54;42.42
26376;BME280;30544;42.196;24.336;2023-03-20T10:19:41;99300.75;;;18.39;41.36
26376;BME280;30544;42.196;24.336;2023-03-20T10:22:18;99304.16;;;18.59;41.00
26376;BME280;30544;42.196;24.336;2023-03-20T10:24:49;99302.94;;;18.42;42.16
26376;BME280;30544;42.196;24.336;2023-03-20T10:27:21;99291.63;;;19.00;41.07
26376;BME280;30544;42.196;24.336;2023-03-20T10:29:55;99288.84;;;18.94;40.31
26376;BME280;30544;42.196;24.336;2023-03-20T10:32:29;99284.66;;;18.44;41.20
26376;BME280;30544;42.196;24.336;2023-03-20T10:35:14;99275.19;;;17.82;43.39
26376;BME280;30544;42.196;24.336;2023-03-20T10:37:56;99255.53;;;18.64;41.93
26376;BME280;30544;42.196;24.336;2023-03-20T10:40:28;99255.75;;;19.10;41.09
26376;BME280;30544;42.196;24.336;2023-03-20T10:42:59;99259.25;;;18.83;41.95
26376;BME280;30544;42.196;24.336;2023-03-20T10:45:34;99254.13;;;18.61;41.63
26376;BME280;30544;42.196;24.336;2023-03-20T10:48:06;99244.59;;;19.62;40.83
26376;BME280;30544;42.196;24.336;2023-03-20T10:50:40;99250.66;;;19.12;39.87
26376;BME280;30544;42.196;24.336;2023-03-20T10:53:20;99243.31;;;19.16;40.16
26376;BME280;30544;42.196;24.336;2023-03-20T10:55:49;99237.03;;;19.76;39.98
26376;BME280;30544;42.196;24.336;2023-03-20T10:58:18;99240.84;;;19.85;39.07
26376;BME280;30544;42.196;24.336;2023-03-20T11:00:47;99233.88;;;19.07;39.72
26376;BME280;30544;42.196;24.336;2023-03-20T11:03:20;99220.56;;;19.50;39.34
26376;BME280;30544;42.196;24.336;2023-03-20T11:05:52;99225.63;;;19.86;38.71
26376;BME280;30544;42.196;24.336;2023-03-20T11:08:23;99211.50;;;20.19;37.42
26376;BME280;30544;42.196;24.336;2023-03-20T11:10:58;99216.28;;;20.04;37.47
26376;BME280;30544;42.196;24.336;2023-03-20T11:13:30;99205.34;;;19.70;37.49
26376;BME280;30544;42.196;24.336;2023-03-20T11:16:07;99203.53;;;19.61;37.57
26376;BME280;30544;42.196;24.336;2023-03-20T11:18:35;99198.84;;;19.89;37.24
26376;BME280;30544;42.196;24.336;2023-03-20T11:21:03;99200.13;;;20.10;36.65
26376;BME280;30544;42.196;24.336;2023-03-20T11:23:33;99194.16;;;19.84;37.52
26376;BME280;30544;42.196;24.336;2023-03-20T11:26:02;99188.03;;;19.44;37.68
26376;BME280;30544;42.196;24.336;2023-03-20T11:28:32;99185.47;;;19.80;38.04
26376;BME280;30544;42.196;24.336;2023-03-20T11:31:02;99179.97;;;19.89;37.93
26376;BME280;30544;42.196;24.336;2023-03-20T11:33:31;99180.00;;;20.03;36.52
26376;BME280;30544;42.196;24.336;2023-03-20T11:35:59;99177.19;;;20.03;37.15
26376;BME280;30544;42.196;24.336;2023-03-20T11:38:29;99173.94;;;19.96;36.66
26376;BME280;30544;42.196;24.336;2023-03-20T11:40:58;99164.75;;;19.90;37.88
26376;BME280;30544;42.196;24.336;2023-03-20T11:43:37;99159.78;;;20.69;36.33
26376;BME280;30544;42.196;24.336;2023-03-20T11:46:08;99153.31;;;20.69;35.71
26376;BME280;30544;42.196;24.336;2023-03-20T11:48:38;99155.69;;;20.62;35.79
26376;BME280;30544;42.196;24.336;2023-03-20T11:51:07;99161.47;;;20.43;36.46
26376;BME280;30544;42.196;24.336;2023-03-20T11:53:38;99152.34;;;20.73;35.84
26376;BME280;30544;42.196;24.336;2023-03-20T11:56:10;99152.19;;;20.56;36.41
26376;BME280;30544;42.196;24.336;2023-03-20T11:58:48;99149.69;;;20.91;36.22
26376;BME280;30544;42.196;24.336;2023-03-20T12:01:16;99145.72;;;20.92;35.40
26376;BME280;30544;42.196;24.336;2023-03-20T12:03:45;99145.50;;;20.52;35.14
26376;BME280;30544;42.196;24.336;2023-03-20T12:06:21;99138.53;;;20.50;35.70
26376;BME280;30544;42.196;24.336;2023-03-20T12:08:54;99141.00;;;21.01;34.71
26376;BME280;30544;42.196;24.336;2023-03-20T12:11:44;99132.84;;;20.99;34.82
26376;BME280;30544;42.196;24.336;2023-03-20T12:14:19;99135.34;;;20.65;34.57
26376;BME280;30544;42.196;24.336;2023-03-20T12:16:49;99126.81;;;20.92;35.13
26376;BME280;30544;42.196;24.336;2023-03-20T12:19:19;99125.97;;;20.69;34.93
26376;BME280;30544;42.196;24.336;2023-03-20T12:21:54;99126.50;;;21.52;34.38
26376;BME280;30544;42.196;24.336;2023-03-20T12:24:28;99122.69;;;21.12;34.00
26376;BME280;30544;42.196;24.336;2023-03-20T12:27:13;99124.00;;;20.56;35.31
26376;BME280;30544;42.196;24.336;2023-03-20T12:29:45;99117.56;;;21.14;34.58
26376;BME280;30544;42.196;24.336;2023-03-20T12:32:16;99118.38;;;21.51;33.54
26376;BME280;30544;42.196;24.336;2023-03-20T12:34:49;99110.94;;;21.63;33.78
26376;BME280;30544;42.196;24.336;2023-03-20T12:37:17;99116.31;;;21.43;32.27
26376;BME280;30544;42.196;24.336;2023-03-20T12:39:47;99113.97;;;21.67;31.80
26376;BME280;30544;42.196;24.336;2023-03-20T12:42:26;99106.44;;;21.54;32.18
26376;BME280;30544;42.196;24.336;2023-03-20T12:44:57;99112.13;;;20.82;33.43
26376;BME280;30544;42.196;24.336;2023-03-20T12:47:36;99098.91;;;21.05;33.95
26376;BME280;30544;42.196;24.336;2023-03-20T12:50:17;99087.84;;;21.84;33.32
26376;BME280;30544;42.196;24.336;2023-03-20T12:52:56;99081.69;;;22.21;31.84
26376;BME280;30544;42.196;24.336;2023-03-20T12:55:39;99085.63;;;22.12;32.16
26376;BME280;30544;42.196;24.336;2023-03-20T12:58:24;99077.25;;;21.98;31.33
26376;BME280;30544;42.196;24.336;2023-03-20T13:00:59;99072.75;;;21.88;32.06
26376;BME280;30544;42.196;24.336;2023-03-20T13:03:39;99070.34;;;21.73;32.35
26376;BME280;30544;42.196;24.336;2023-03-20T13:06:14;99067.78;;;22.42;32.00
26376;BME280;30544;42.196;24.336;2023-03-20T13:08:57;99070.53;;;22.16;31.75
26376;BME280;30544;42.196;24.336;2023-03-20T13:11:30;99064.78;;;22.39;31.65
26376;BME280;30544;42.196;24.336;2023-03-20T13:14:07;99062.72;;;22.13;31.84
26376;BME280;30544;42.196;24.336;2023-03-20T13:16:44;99056.31;;;21.99;31.33
26376;BME280;30544;42.196;24.336;2023-03-20T13:19:22;99065.94;;;22.38;31.04
26376;BME280;30544;42.196;24.336;2023-03-20T13:21:55;99059.00;;;22.52;30.61